sensor_id;sensor_type;location;lat;lon;timestamp;temperature;humidity
3660;DHT22;1846;51.482;7.224;2023-04-25T00:02:38;7.90;1.00
3660;DHT22;1846;51.482;7.224;2023-04-25T00:05:20;7.90;1.00
3660;DHT22;1846;51.482;7.224;2023-04-25T00:08:03;7.80;1.00
3660;DHT22;1846;51.482;7.224;2023-04-25T00:10:40;7.80;1.00
3660;DHT22;1846;51.482;7.224;2023-04-25T00:16:41;7.90;1.00
3660;DHT22;1846;51.482;7.224;2023-04-25T00:19:17;7.90;1.00
3660;DHT22;1846;51.482;7.224;2023-04-25T00:21:47;7.80;1.00
3660;DHT22;1846;51.482;7.224;2023-04-25T00:24:48;7.70;1.00
3660;DHT22;1846;51.482;7.224;2023-04-25T00:27:33;7.70;74.50
3660;DHT22;1846;51.482;7.224;2023-04-25T00:30:31;7.80;63.00
3660;DHT22;1846;51.482;7.224;2023-04-25T00:33:35;7.80;58.30
3660;DHT22;1846;51.482;7.224;2023-04-25T00:36:18;7.80;65.30
3660;DHT22;1846;51.482;7.224;2023-04-25T00:38:54;7.70;99.90
3660;DHT22;1846;51.482;7.224;2023-04-25T00:41:39;7.70;99.90
3660;DHT22;1846;51.482;7.224;2023-04-25T00:44:21;7.70;99.90
3660;DHT22;1846;51.482;7.224;2023-04-25T00:46:52;7.80;99.90
3660;DHT22;1846;51.482;7.224;2023-04-25T00:49:24;7.80;99.90
3660;DHT22;1846;51.482;7.224;2023-04-25T00:51:56;7.90;71.30
3660;DHT22;1846;51.482;7.224;2023-04-25T00:54:33;7.90;99.90
3660;DHT22;1846;51.482;7.224;2023-04-25T00:57:17;7.90;99.90
3660;DHT22;1846;51.482;7.224;2023-04-25T00:59:47;7.90;99.90
3660;DHT22;1846;51.482;7.224;2023-04-25T01:02:16;7.90;99.90
3660;DHT22;1846;51.482;7.224;2023-04-25T01:04:48;7.80;99.90
3660;DHT22;1846;51.482;7.224;2023-04-25T01:07:23;7.70;1.00
3660;DHT22;1846;51.482;7.224;2023-04-25T01:10:13;7.60;99.90
3660;DHT22;1846;51.482;7.224;2023-04-25T01:13:42;7.60;1.00
3660;DHT22;1846;51.482;7.224;2023-04-25T01:16:30;7.40;9.70
3660;DHT22;1846;51.482;7.224;2023-04-25T01:22:24;7.50;99.90
3660;DHT22;1846;51.482;7.224;2023-04-25T01:25:08;7.30;13.90
3660;DHT22;1846;51.482;7.224;2023-04-25T01:28:11;7.40;99.90
3660;DHT22;1846;51.482;7.224;2023-04-25T01:31:30;7.50;99.90
3660;DHT22;1846;51.482;7.224;2023-04-25T01:34:29;7.60;99.90
3660;DHT22;1846;51.482;7.224;2023-04-25T01:37:06;7.60;1.00
3660;DHT22;1846;51.482;7.224;2023-04-25T01:40:05;7.60;99.90
3660;DHT22;1846;51.482;7.224;2023-04-25T01:42:41;7.60;9.60
3660;DHT22;1846;51.482;7.224;2023-04-25T01:45:27;7.50;9.60
3660;DHT22;1846;51.482;7.224;2023-04-25T01:51:07;7.50;99.90
3660;DHT22;1846;51.482;7.224;2023-04-25T01:54:10;7.50;1.00
3660;DHT22;1846;51.482;7.224;2023-04-25T01:56:49;7.60;1.00
3660;DHT22;1846;51.482;7.224;2023-04-25T01:59:38;7.50;12.00
3660;DHT22;1846;51.482;7.224;2023-04-25T02:02:59;7.50;1.00
3660;DHT22;1846;51.482;7.224;2023-04-25T02:05:39;7.80;99.90
3660;DHT22;1846;51.482;7.224;2023-04-25T02:08:34;7.80;99.90
3660;DHT22;1846;51.482;7.224;2023-04-25T02:11:22;7.80;99.90
3660;DHT22;1846;51.482;7.224;2023-04-25T02:14:28;7.60;1.00
3660;DHT22;1846;51.482;7.224;2023-04-25T02:17:20;7.60;1.00
3660;DHT22;1846;51.482;7.224;2023-04-25T02:20:09;7.50;1.00
3660;DHT22;1846;51.482;7.224;2023-04-25T02:22:38;7.60;99.90
3660;DHT22;1846;51.482;7.224;2023-04-25T02:25:16;7.70;9.70
3660;DHT22;1846;51.482;7.224;2023-04-25T02:27:52;7.70;99.90
3660;DHT22;1846;51.482;7.224;2023-04-25T02:30:44;7.80;99.90
3660;DHT22;1846;51.482;7.224;2023-04-25T02:33:39;7.60;99.90
3660;DHT22;1846;51.482;7.224;2023-04-25T02:36:15;7.60;1.00
3660;DHT22;1846;51.482;7.224;2023-04-25T02:38:53;7.60;99.90
3660;DHT22;1846;51.482;7.224;2023-04-25T02:41:37;7.50;1.00
3660;DHT22;1846;51.482;7.224;2023-04-25T02:44:27;7.50;99.90
3660;DHT22;1846;51.482;7.224;2023-04-25T02:47:14;7.50;5.90
3660;DHT22;1846;51.482;7.224;2023-04-25T02:49:52;7.50;1.00
3660;DHT22;1846;51.482;7.224;2023-04-25T02:55:52;7.70;99.90
3660;DHT22;1846;51.482;7.224;2023-04-25T02:58:30;7.70;99.90
3660;DHT22;1846;51.482;7.224;2023-04-25T03:01:07;7.70;99.90
3660;DHT22;1846;51.482;7.224;2023-04-25T03:03:59;7.60;1.00
3660;DHT22;1846;51.482;7.224;2023-04-25T03:06:34;7.40;19.10
3660;DHT22;1846;51.482;7.224;2023-04-25T03:09:36;7.40;99.90
3660;DHT22;1846;51.482;7.224;2023-04-25T03:15:49;7.30;1.00
3660;DHT22;1846;51.482;7.224;2023-04-25T03:21:16;7.30;99.90
3660;DHT22;1846;51.482;7.224;2023-04-25T03:24:06;7.30;99.90
3660;DHT22;1846;51.482;7.224;2023-04-25T03:26:49;7.30;99.90
3660;DHT22;1846;51.482;7.224;2023-04-25T03:32:15;7.40;99.90
3660;DHT22;1846;51.482;7.224;2023-04-25T03:35:10;7.40;99.90
3660;DHT22;1846;51.482;7.224;2023-04-25T03:38:07;7.50;99.90
3660;DHT22;1846;51.482;7.224;2023-04-25T03:40:48;7.40;1.00
3660;DHT22;1846;51.482;7.224;2023-04-25T03:43:41;7.40;1.00
3660;DHT22;1846;51.482;7.224;2023-04-25T03:46:23;7.50;1.00
3660;DHT22;1846;51.482;7.224;2023-04-25T03:49:04;7.30;1.00
3660;DHT22;1846;51.482;7.224;2023-04-25T03:51:54;7.30;1.00
3660;DHT22;1846;51.482;7.224;2023-04-25T03:54:42;7.20;99.90
3660;DHT22;1846;51.482;7.224;2023-04-25T03:57:24;7.20;99.90
3660;DHT22;1846;51.482;7.224;2023-04-25T04:00:08;7.10;99.90
3660;DHT22;1846;51.482;7.224;2023-04-25T04:02:48;7.20;99.90
3660;DHT22;1846;51.482;7.224;2023-04-25T04:05:25;7.30;99.90
3660;DHT22;1846;51.482;7.224;2023-04-25T04:08:15;7.40;99.90
3660;DHT22;1846;51.482;7.224;2023-04-25T04:11:02;7.50;1.00
3660;DHT22;1846;51.482;7.224;2023-04-25T04:13:34;7.40;99.90
3660;DHT22;1846;51.482;7.224;2023-04-25T04:16:04;7.30;1.00
3660;DHT22;1846;51.482;7.224;2023-04-25T04:18:57;7.10;99.90
3660;DHT22;1846;51.482;7.224;2023-04-25T04:21:48;7.00;1.00
3660;DHT22;1846;51.482;7.224;2023-04-25T04:24:21;6.80;99.90
3660;DHT22;1846;51.482;7.224;2023-04-25T04:27:03;6.80;1.00
3660;DHT22;1846;51.482;7.224;2023-04-25T04:29:34;6.60;99.90
3660;DHT22;1846;51.482;7.224;2023-04-25T04:32:57;6.50;99.90
3660;DHT22;1846;51.482;7.224;2023-04-25T04:35:37;6.50;99.90
3660;DHT22;1846;51.482;7.224;2023-04-25T04:38:11;6.50;99.90
3660;DHT22;1846;51.482;7.224;2023-04-25T04:40:52;6.30;7.70
3660;DHT22;1846;51.482;7.224;2023-04-25T04:43:39;6.20;99.90
3660;DHT22;1846;51.482;7.224;2023-04-25T04:46:22;6.10;99.90
3660;DHT22;1846;51.482;7.224;2023-04-25T04:49:14;6.10;1.00
3660;DHT22;1846;51.482;7.224;2023-04-25T04:52:12;6.30;99.90
3660;DHT22;1846;51.482;7.224;2023-04-25T04:55:29;6.40;19.50
3660;DHT22;1846;51.482;7.224;2023-04-25T04:58:21;6.40;99.90
3660;DHT22;1846;51.482;7.224;2023-04-25T05:01:01;6.50;99.90
3660;DHT22;1846;51.482;7.224;2023-04-25T05:03:47;6.50;1.00
3660;DHT22;1846;51.482;7.224;2023-04-25T05:07:07;6.50;99.90
3660;DHT22;1846;51.482;7.224;2023-04-25T05:14:06;6.70;1.00
3660;DHT22;1846;51.482;7.224;2023-04-25T05:16:53;6.60;99.90
3660;DHT22;1846;51.482;7.224;2023-04-25T07:01:30;8.70;1.00
3660;DHT22;1846;51.482;7.224;2023-04-25T07:07:54;8.80;1.00
3660;DHT22;1846;51.482;7.224;2023-04-25T07:50:33;9.40;99.90
3660;DHT22;1846;51.482;7.224;2023-04-25T07:53:00;9.30;99.90
3660;DHT22;1846;51.482;7.224;2023-04-25T08:04:24;9.30;99.90
3660;DHT22;1846;51.482;7.224;2023-04-25T08:23:38;9.40;99.90
3660;DHT22;1846;51.482;7.224;2023-04-25T08:37:29;9.90;99.90
3660;DHT22;1846;51.482;7.224;2023-04-25T09:01:50;9.90;99.90
3660;DHT22;1846;51.482;7.224;2023-04-25T09:04:33;10.10;99.90
3660;DHT22;1846;51.482;7.224;2023-04-25T09:07:07;10.30;99.90
3660;DHT22;1846;51.482;7.224;2023-04-25T09:09:40;10.50;99.90
3660;DHT22;1846;51.482;7.224;2023-04-25T09:12:10;10.90;99.90
3660;DHT22;1846;51.482;7.224;2023-04-25T09:23:48;11.20;95.80
3660;DHT22;1846;51.482;7.224;2023-04-25T09:26:27;11.20;97.60
3660;DHT22;1846;51.482;7.224;2023-04-25T09:29:07;11.20;93.40
3660;DHT22;1846;51.482;7.224;2023-04-25T09:31:39;10.90;86.90
3660;DHT22;1846;51.482;7.224;2023-04-25T09:34:06;10.70;90.90
3660;DHT22;1846;51.482;7.224;2023-04-25T09:36:39;10.50;93.60
3660;DHT22;1846;51.482;7.224;2023-04-25T09:39:12;10.50;98.60
3660;DHT22;1846;51.482;7.224;2023-04-25T09:41:46;10.50;99.80
3660;DHT22;1846;51.482;7.224;2023-04-25T09:44:13;10.60;98.90
3660;DHT22;1846;51.482;7.224;2023-04-25T09:46:43;10.60;99.90
3660;DHT22;1846;51.482;7.224;2023-04-25T09:49:24;10.90;99.90
3660;DHT22;1846;51.482;7.224;2023-04-25T09:51:59;10.90;98.70
3660;DHT22;1846;51.482;7.224;2023-04-25T09:54:27;11.00;96.00
3660;DHT22;1846;51.482;7.224;2023-04-25T09:56:54;11.00;96.10
3660;DHT22;1846;51.482;7.224;2023-04-25T09:59:25;11.00;98.50
3660;DHT22;1846;51.482;7.224;2023-04-25T10:02:17;11.30;86.60
3660;DHT22;1846;51.482;7.224;2023-04-25T10:04:52;11.70;69.10
3660;DHT22;1846;51.482;7.224;2023-04-25T10:10:20;13.00;56.00
3660;DHT22;1846;51.482;7.224;2023-04-25T10:12:51;14.10;64.40
3660;DHT22;1846;51.482;7.224;2023-04-25T10:15:25;15.00;69.50
3660;DHT22;1846;51.482;7.224;2023-04-25T10:17:55;15.70;73.50
3660;DHT22;1846;51.482;7.224;2023-04-25T10:20:24;15.50;60.60
3660;DHT22;1846;51.482;7.224;2023-04-25T10:22:54;15.00;55.60
3660;DHT22;1846;51.482;7.224;2023-04-25T10:25:31;14.50;52.50
3660;DHT22;1846;51.482;7.224;2023-04-25T10:27:59;13.60;48.90
3660;DHT22;1846;51.482;7.224;2023-04-25T10:30:26;12.60;43.50
3660;DHT22;1846;51.482;7.224;2023-04-25T10:35:25;12.10;52.70
3660;DHT22;1846;51.482;7.224;2023-04-25T10:38:03;11.60;40.20
3660;DHT22;1846;51.482;7.224;2023-04-25T10:50:51;11.40;44.50
3660;DHT22;1846;51.482;7.224;2023-04-25T10:59:08;11.50;44.70
3660;DHT22;1846;51.482;7.224;2023-04-25T11:01:37;11.40;46.00
3660;DHT22;1846;51.482;7.224;2023-04-25T11:04:05;11.10;44.00
3660;DHT22;1846;51.482;7.224;2023-04-25T11:06:43;10.90;50.70
3660;DHT22;1846;51.482;7.224;2023-04-25T11:09:13;10.70;77.30
3660;DHT22;1846;51.482;7.224;2023-04-25T11:11:40;10.40;99.90
3660;DHT22;1846;51.482;7.224;2023-04-25T11:14:07;10.10;99.90
3660;DHT22;1846;51.482;7.224;2023-04-25T11:16:36;10.00;99.90
3660;DHT22;1846;51.482;7.224;2023-04-25T11:19:03;10.00;99.90
3660;DHT22;1846;51.482;7.224;2023-04-25T11:21:31;10.00;99.90
3660;DHT22;1846;51.482;7.224;2023-04-25T11:24:02;10.00;99.90
3660;DHT22;1846;51.482;7.224;2023-04-25T11:26:30;9.70;99.90
3660;DHT22;1846;51.482;7.224;2023-04-25T11:28:57;9.70;99.90
3660;DHT22;1846;51.482;7.224;2023-04-25T11:31:26;9.50;99.90
3660;DHT22;1846;51.482;7.224;2023-04-25T11:33:53;9.50;99.90
3660;DHT22;1846;51.482;7.224;2023-04-25T11:36:22;9.60;99.90
3660;DHT22;1846;51.482;7.224;2023-04-25T11:38:49;9.60;99.90
3660;DHT22;1846;51.482;7.224;2023-04-25T11:41:18;9.80;99.90
3660;DHT22;1846;51.482;7.224;2023-04-25T11:43:46;9.90;99.90
3660;DHT22;1846;51.482;7.224;2023-04-25T11:46:14;10.10;99.90
3660;DHT22;1846;51.482;7.224;2023-04-25T11:48:42;10.50;94.30
3660;DHT22;1846;51.482;7.224;2023-04-25T11:51:10;10.90;91.70
3660;DHT22;1846;51.482;7.224;2023-04-25T11:53:40;11.30;90.10
3660;DHT22;1846;51.482;7.224;2023-04-25T11:56:09;11.60;93.10
3660;DHT22;1846;51.482;7.224;2023-04-25T11:58:56;12.60;84.50
3660;DHT22;1846;51.482;7.224;2023-04-25T12:01:30;14.00;80.20
3660;DHT22;1846;51.482;7.224;2023-04-25T12:03:57;14.90;55.50
3660;DHT22;1846;51.482;7.224;2023-04-25T12:06:28;15.40;58.30
3660;DHT22;1846;51.482;7.224;2023-04-25T12:09:03;15.80;55.90
3660;DHT22;1846;51.482;7.224;2023-04-25T12:11:41;15.90;55.80
3660;DHT22;1846;51.482;7.224;2023-04-25T12:14:09;16.00;56.00
3660;DHT22;1846;51.482;7.224;2023-04-25T12:16:46;16.00;55.00
3660;DHT22;1846;51.482;7.224;2023-04-25T12:19:14;16.40;56.80
3660;DHT22;1846;51.482;7.224;2023-04-25T12:21:41;17.20;58.80
3660;DHT22;1846;51.482;7.224;2023-04-25T12:24:10;18.00;66.10
3660;DHT22;1846;51.482;7.224;2023-04-25T12:26:54;18.10;62.60
3660;DHT22;1846;51.482;7.224;2023-04-25T12:29:31;17.20;57.30
3660;DHT22;1846;51.482;7.224;2023-04-25T12:31:58;16.20;49.80
3660;DHT22;1846;51.482;7.224;2023-04-25T12:34:26;16.20;49.90
3660;DHT22;1846;51.482;7.224;2023-04-25T12:36:53;16.30;51.20
3660;DHT22;1846;51.482;7.224;2023-04-25T12:39:21;16.30;49.30
3660;DHT22;1846;51.482;7.224;2023-04-25T12:41:49;16.20;50.50
3660;DHT22;1846;51.482;7.224;2023-04-25T12:44:17;15.70;46.50
3660;DHT22;1846;51.482;7.224;2023-04-25T12:46:46;15.00;41.40
3660;DHT22;1846;51.482;7.224;2023-04-25T12:49:13;14.10;33.90
3660;DHT22;1846;51.482;7.224;2023-04-25T12:51:40;13.70;33.00
3660;DHT22;1846;51.482;7.224;2023-04-25T12:54:07;13.30;31.00
3660;DHT22;1846;51.482;7.224;2023-04-25T12:56:35;12.90;29.10
3660;DHT22;1846;51.482;7.224;2023-04-25T12:59:02;12.70;30.90
3660;DHT22;1846;51.482;7.224;2023-04-25T13:01:29;12.50;31.10
3660;DHT22;1846;51.482;7.224;2023-04-25T13:03:58;12.30;31.80
3660;DHT22;1846;51.482;7.224;2023-04-25T13:06:26;12.10;30.80
3660;DHT22;1846;51.482;7.224;2023-04-25T13:08:53;11.90;31.30
3660;DHT22;1846;51.482;7.224;2023-04-25T13:11:19;11.90;30.30
3660;DHT22;1846;51.482;7.224;2023-04-25T13:13:46;11.70;31.00
3660;DHT22;1846;51.482;7.224;2023-04-25T13:16:13;11.50;29.10
3660;DHT22;1846;51.482;7.224;2023-04-25T13:18:40;11.40;29.20
3660;DHT22;1846;51.482;7.224;2023-04-25T13:21:09;11.30;30.00
3660;DHT22;1846;51.482;7.224;2023-04-25T13:23:37;11.30;30.70
3660;DHT22;1846;51.482;7.224;2023-04-25T13:26:04;11.20;31.70
3660;DHT22;1846;51.482;7.224;2023-04-25T13:28:31;11.30;34.30
3660;DHT22;1846;51.482;7.224;2023-04-25T13:30:58;11.50;36.60
3660;DHT22;1846;51.482;7.224;2023-04-25T13:33:25;11.60;36.50
3660;DHT22;1846;51.482;7.224;2023-04-25T13:35:52;11.60;37.50
3660;DHT22;1846;51.482;7.224;2023-04-25T13:38:24;11.40;38.00
3660;DHT22;1846;51.482;7.224;2023-04-25T13:40:51;11.30;38.30
3660;DHT22;1846;51.482;7.224;2023-04-25T13:43:19;11.30;38.90
3660;DHT22;1846;51.482;7.224;2023-04-25T13:45:46;11.30;40.00
3660;DHT22;1846;51.482;7.224;2023-04-25T13:48:12;11.40;42.50
3660;DHT22;1846;51.482;7.224;2023-04-25T13:50:39;11.20;42.70
3660;DHT22;1846;51.482;7.224;2023-04-25T13:53:06;11.20;47.50
3660;DHT22;1846;51.482;7.224;2023-04-25T13:55:35;11.40;49.90
3660;DHT22;1846;51.482;7.224;2023-04-25T13:58:04;11.60;47.00
3660;DHT22;1846;51.482;7.224;2023-04-25T14:00:36;11.80;46.20
3660;DHT22;1846;51.482;7.224;2023-04-25T14:03:05;11.80;47.60
3660;DHT22;1846;51.482;7.224;2023-04-25T14:05:34;12.00;44.80
3660;DHT22;1846;51.482;7.224;2023-04-25T14:08:08;12.00;41.80
3660;DHT22;1846;51.482;7.224;2023-04-25T14:10:37;12.20;42.20
3660;DHT22;1846;51.482;7.224;2023-04-25T14:13:06;12.70;40.50
3660;DHT22;1846;51.482;7.224;2023-04-25T14:15:34;13.00;41.30
3660;DHT22;1846;51.482;7.224;2023-04-25T14:18:01;13.20;42.90
3660;DHT22;1846;51.482;7.224;2023-04-25T14:20:29;13.40;42.10
3660;DHT22;1846;51.482;7.224;2023-04-25T14:22:59;13.50;40.10
3660;DHT22;1846;51.482;7.224;2023-04-25T14:25:29;12.90;35.40
3660;DHT22;1846;51.482;7.224;2023-04-25T14:27:58;12.80;36.60
3660;DHT22;1846;51.482;7.224;2023-04-25T14:30:25;13.00;38.00
3660;DHT22;1846;51.482;7.224;2023-04-25T14:32:56;13.20;39.00
3660;DHT22;1846;51.482;7.224;2023-04-25T14:35:26;13.20;37.70
3660;DHT22;1846;51.482;7.224;2023-04-25T14:37:58;13.50;38.40
3660;DHT22;1846;51.482;7.224;2023-04-25T14:40:26;13.70;39.70
3660;DHT22;1846;51.482;7.224;2023-04-25T14:42:53;13.90;40.10
3660;DHT22;1846;51.482;7.224;2023-04-25T14:45:21;13.80;38.10
3660;DHT22;1846;51.482;7.224;2023-04-25T14:47:48;13.70;38.10
3660;DHT22;1846;51.482;7.224;2023-04-25T14:50:15;13.50;36.80
3660;DHT22;1846;51.482;7.224;2023-04-25T14:52:42;13.60;37.50
3660;DHT22;1846;51.482;7.224;2023-04-25T14:55:10;14.10;38.70
3660;DHT22;1846;51.482;7.224;2023-04-25T14:57:37;14.10;35.30
3660;DHT22;1846;51.482;7.224;2023-04-25T15:00:06;14.40;34.60
3660;DHT22;1846;51.482;7.224;2023-04-25T15:02:36;14.20;32.00
3660;DHT22;1846;51.482;7.224;2023-04-25T15:05:06;14.00;30.50
3660;DHT22;1846;51.482;7.224;2023-04-25T15:07:36;13.30;28.00
3660;DHT22;1846;51.482;7.224;2023-04-25T15:10:13;13.20;28.20
3660;DHT22;1846;51.482;7.224;2023-04-25T15:12:41;13.00;28.50
3660;DHT22;1846;51.482;7.224;2023-04-25T15:15:10;12.60;28.70
3660;DHT22;1846;51.482;7.224;2023-04-25T15:17:43;12.20;29.90
3660;DHT22;1846;51.482;7.224;2023-04-25T15:20:21;12.10;32.20
3660;DHT22;1846;51.482;7.224;2023-04-25T15:22:55;12.30;35.50
3660;DHT22;1846;51.482;7.224;2023-04-25T15:25:23;12.40;37.20
3660;DHT22;1846;51.482;7.224;2023-04-25T15:27:53;12.40;37.80
3660;DHT22;1846;51.482;7.224;2023-04-25T15:30:20;12.70;39.80
3660;DHT22;1846;51.482;7.224;2023-04-25T15:35:39;12.80;39.30
3660;DHT22;1846;51.482;7.224;2023-04-25T15:40:51;12.70;32.20
3660;DHT22;1846;51.482;7.224;2023-04-25T15:43:24;12.70;30.10
3660;DHT22;1846;51.482;7.224;2023-04-25T15:45:53;12.70;29.90
3660;DHT22;1846;51.482;7.224;2023-04-25T15:48:40;12.80;28.80
3660;DHT22;1846;51.482;7.224;2023-04-25T15:51:15;12.70;28.70
3660;DHT22;1846;51.482;7.224;2023-04-25T15:53:48;12.60;28.90
3660;DHT22;1846;51.482;7.224;2023-04-25T15:56:15;12.50;27.20
3660;DHT22;1846;51.482;7.224;2023-04-25T15:58:42;12.30;27.10
3660;DHT22;1846;51.482;7.224;2023-04-25T16:01:09;12.20;26.60
3660;DHT22;1846;51.482;7.224;2023-04-25T16:03:43;12.20;26.00
3660;DHT22;1846;51.482;7.224;2023-04-25T16:06:17;11.80;25.50
3660;DHT22;1846;51.482;7.224;2023-04-25T16:08:55;11.70;25.60
3660;DHT22;1846;51.482;7.224;2023-04-25T16:11:25;11.60;25.10
3660;DHT22;1846;51.482;7.224;2023-04-25T16:13:59;11.40;25.50
3660;DHT22;1846;51.482;7.224;2023-04-25T16:16:28;11.50;25.80
3660;DHT22;1846;51.482;7.224;2023-04-25T16:18:56;11.30;25.20
3660;DHT22;1846;51.482;7.224;2023-04-25T16:21:28;11.20;25.00
3660;DHT22;1846;51.482;7.224;2023-04-25T16:24:01;11.30;27.20
3660;DHT22;1846;51.482;7.224;2023-04-25T16:26:36;11.30;29.50
3660;DHT22;1846;51.482;7.224;2023-04-25T16:29:11;11.20;32.50
3660;DHT22;1846;51.482;7.224;2023-04-25T16:31:42;11.20;35.80
3660;DHT22;1846;51.482;7.224;2023-04-25T16:34:13;11.10;37.60
3660;DHT22;1846;51.482;7.224;2023-04-25T16:36:42;11.00;38.00
3660;DHT22;1846;51.482;7.224;2023-04-25T16:39:14;11.10;40.40
3660;DHT22;1846;51.482;7.224;2023-04-25T16:41:49;11.00;42.60
3660;DHT22;1846;51.482;7.224;2023-04-25T16:44:27;11.00;46.60
3660;DHT22;1846;51.482;7.224;2023-04-25T16:46:58;11.10;47.20
3660;DHT22;1846;51.482;7.224;2023-04-25T16:49:42;11.20;48.10
3660;DHT22;1846;51.482;7.224;2023-04-25T16:52:11;11.20;48.20
3660;DHT22;1846;51.482;7.224;2023-04-25T16:54:44;11.20;46.60
3660;DHT22;1846;51.482;7.224;2023-04-25T17:01:07;11.30;38.80
3660;DHT22;1846;51.482;7.224;2023-04-25T17:03:46;11.30;32.70
3660;DHT22;1846;51.482;7.224;2023-04-25T17:06:17;11.30;32.20
3660;DHT22;1846;51.482;7.224;2023-04-25T17:08:56;11.30;29.00
3660;DHT22;1846;51.482;7.224;2023-04-25T17:11:25;11.40;27.10
3660;DHT22;1846;51.482;7.224;2023-04-25T17:13:52;11.30;34.60
3660;DHT22;1846;51.482;7.224;2023-04-25T17:16:19;11.00;26.00
3660;DHT22;1846;51.482;7.224;2023-04-25T17:18:53;10.90;26.00
3660;DHT22;1846;51.482;7.224;2023-04-25T17:21:24;10.70;27.20
3660;DHT22;1846;51.482;7.224;2023-04-25T17:23:53;10.60;27.30
3660;DHT22;1846;51.482;7.224;2023-04-25T17:26:25;10.70;28.20
3660;DHT22;1846;51.482;7.224;2023-04-25T17:28:56;10.60;29.20
3660;DHT22;1846;51.482;7.224;2023-04-25T17:31:26;10.60;29.60
3660;DHT22;1846;51.482;7.224;2023-04-25T17:33:53;10.50;29.10
3660;DHT22;1846;51.482;7.224;2023-04-25T17:36:24;10.40;28.90
3660;DHT22;1846;51.482;7.224;2023-04-25T17:38:53;10.40;29.20
3660;DHT22;1846;51.482;7.224;2023-04-25T17:41:23;10.20;28.00
3660;DHT22;1846;51.482;7.224;2023-04-25T17:43:51;10.30;27.40
3660;DHT22;1846;51.482;7.224;2023-04-25T17:46:20;10.30;29.50
3660;DHT22;1846;51.482;7.224;2023-04-25T17:48:49;10.40;32.40
3660;DHT22;1846;51.482;7.224;2023-04-25T17:51:29;10.40;32.30
3660;DHT22;1846;51.482;7.224;2023-04-25T17:53:56;10.50;30.10
3660;DHT22;1846;51.482;7.224;2023-04-25T17:56:28;10.40;29.70
3660;DHT22;1846;51.482;7.224;2023-04-25T17:58:56;10.40;27.00
3660;DHT22;1846;51.482;7.224;2023-04-25T18:01:26;10.30;26.70
3660;DHT22;1846;51.482;7.224;2023-04-25T18:04:06;10.20;27.00
3660;DHT22;1846;51.482;7.224;2023-04-25T18:06:34;10.10;27.10
3660;DHT22;1846;51.482;7.224;2023-04-25T18:09:05;10.10;26.80
3660;DHT22;1846;51.482;7.224;2023-04-25T18:11:41;9.80;26.80
3660;DHT22;1846;51.482;7.224;2023-04-25T18:14:14;9.60;27.00
3660;DHT22;1846;51.482;7.224;2023-04-25T18:16:43;9.50;27.20
3660;DHT22;1846;51.482;7.224;2023-04-25T18:19:19;9.50;29.30
3660;DHT22;1846;51.482;7.224;2023-04-25T18:21:49;9.50;31.70
3660;DHT22;1846;51.482;7.224;2023-04-25T18:24:20;9.50;30.80
3660;DHT22;1846;51.482;7.224;2023-04-25T18:26:47;9.50;31.20
3660;DHT22;1846;51.482;7.224;2023-04-25T18:29:24;9.50;32.20
3660;DHT22;1846;51.482;7.224;2023-04-25T18:31:54;9.40;33.80
3660;DHT22;1846;51.482;7.224;2023-04-25T18:34:21;9.50;34.40
3660;DHT22;1846;51.482;7.224;2023-04-25T18:36:56;9.40;34.30
3660;DHT22;1846;51.482;7.224;2023-04-25T18:39:28;9.30;36.10
3660;DHT22;1846;51.482;7.224;2023-04-25T18:42:01;9.50;36.60
3660;DHT22;1846;51.482;7.224;2023-04-25T18:44:29;9.60;36.30
3660;DHT22;1846;51.482;7.224;2023-04-25T18:47:01;9.50;36.90
3660;DHT22;1846;51.482;7.224;2023-04-25T18:49:32;9.50;39.00
3660;DHT22;1846;51.482;7.224;2023-04-25T18:52:09;9.40;40.00
3660;DHT22;1846;51.482;7.224;2023-04-25T18:54:40;9.20;42.60
3660;DHT22;1846;51.482;7.224;2023-04-25T18:57:07;9.10;44.60
3660;DHT22;1846;51.482;7.224;2023-04-25T18:59:36;9.00;46.50
3660;DHT22;1846;51.482;7.224;2023-04-25T19:02:07;9.10;48.40
3660;DHT22;1846;51.482;7.224;2023-04-25T19:04:41;9.00;57.80
3660;DHT22;1846;51.482;7.224;2023-04-25T19:07:12;9.00;51.00
3660;DHT22;1846;51.482;7.224;2023-04-25T19:09:43;8.90;50.90
3660;DHT22;1846;51.482;7.224;2023-04-25T19:12:10;8.80;49.30
3660;DHT22;1846;51.482;7.224;2023-04-25T19:14:37;8.80;46.90
3660;DHT22;1846;51.482;7.224;2023-04-25T19:17:06;8.80;47.30
3660;DHT22;1846;51.482;7.224;2023-04-25T19:19:36;8.80;48.50
3660;DHT22;1846;51.482;7.224;2023-04-25T19:22:02;8.70;49.60
3660;DHT22;1846;51.482;7.224;2023-04-25T19:24:32;8.80;48.30
3660;DHT22;1846;51.482;7.224;2023-04-25T19:26:59;8.70;47.10
3660;DHT22;1846;51.482;7.224;2023-04-25T19:29:28;8.80;45.60
3660;DHT22;1846;51.482;7.224;2023-04-25T19:32:00;8.90;44.80
3660;DHT22;1846;51.482;7.224;2023-04-25T19:34:28;8.80;43.40
3660;DHT22;1846;51.482;7.224;2023-04-25T19:37:05;8.80;44.00
3660;DHT22;1846;51.482;7.224;2023-04-25T19:39:40;8.80;45.00
3660;DHT22;1846;51.482;7.224;2023-04-25T19:42:07;8.70;47.50
3660;DHT22;1846;51.482;7.224;2023-04-25T19:44:37;8.70;47.40
3660;DHT22;1846;51.482;7.224;2023-04-25T19:47:08;8.60;53.40
3660;DHT22;1846;51.482;7.224;2023-04-25T19:49:41;8.50;55.80
3660;DHT22;1846;51.482;7.224;2023-04-25T19:52:08;8.50;58.40
3660;DHT22;1846;51.482;7.224;2023-04-25T19:54:48;8.60;64.40
3660;DHT22;1846;51.482;7.224;2023-04-25T19:57:15;8.50;69.40
3660;DHT22;1846;51.482;7.224;2023-04-25T19:59:47;8.40;74.20
3660;DHT22;1846;51.482;7.224;2023-04-25T20:02:17;8.30;80.80
3660;DHT22;1846;51.482;7.224;2023-04-25T20:04:53;8.10;86.30
3660;DHT22;1846;51.482;7.224;2023-04-25T20:07:22;8.00;91.40
3660;DHT22;1846;51.482;7.224;2023-04-25T20:09:52;8.10;91.90
3660;DHT22;1846;51.482;7.224;2023-04-25T20:12:22;8.00;97.50
3660;DHT22;1846;51.482;7.224;2023-04-25T20:14:55;7.90;98.10
3660;DHT22;1846;51.482;7.224;2023-04-25T20:17:31;7.90;97.40
3660;DHT22;1846;51.482;7.224;2023-04-25T20:20:00;7.90;97.00
3660;DHT22;1846;51.482;7.224;2023-04-25T20:22:28;7.80;98.00
3660;DHT22;1846;51.482;7.224;2023-04-25T20:25:02;7.80;99.90
3660;DHT22;1846;51.482;7.224;2023-04-25T20:27:30;7.70;99.90
3660;DHT22;1846;51.482;7.224;2023-04-25T20:30:06;7.70;99.90
3660;DHT22;1846;51.482;7.224;2023-04-25T20:32:34;7.60;99.90
3660;DHT22;1846;51.482;7.224;2023-04-25T20:35:01;7.60;99.90
3660;DHT22;1846;51.482;7.224;2023-04-25T20:37:31;7.60;99.90
3660;DHT22;1846;51.482;7.224;2023-04-25T20:40:06;7.50;99.90
3660;DHT22;1846;51.482;7.224;2023-04-25T20:42:33;7.50;99.90
3660;DHT22;1846;51.482;7.224;2023-04-25T20:45:00;7.50;99.90
3660;DHT22;1846;51.482;7.224;2023-04-25T20:47:32;7.50;99.90
3660;DHT22;1846;51.482;7.224;2023-04-25T20:50:04;7.40;99.90
3660;DHT22;1846;51.482;7.224;2023-04-25T20:52:31;7.40;99.90
3660;DHT22;1846;51.482;7.224;2023-04-25T20:55:07;7.40;99.90
3660;DHT22;1846;51.482;7.224;2023-04-25T20:57:37;7.40;99.90
3660;DHT22;1846;51.482;7.224;2023-04-25T21:00:13;7.40;99.90
3660;DHT22;1846;51.482;7.224;2023-04-25T21:02:43;7.30;99.90
3660;DHT22;1846;51.482;7.224;2023-04-25T21:05:17;7.30;99.90
3660;DHT22;1846;51.482;7.224;2023-04-25T21:07:46;7.20;99.90
3660;DHT22;1846;51.482;7.224;2023-04-25T21:10:17;7.20;99.90
3660;DHT22;1846;51.482;7.224;2023-04-25T21:12:44;7.10;99.90
3660;DHT22;1846;51.482;7.224;2023-04-25T21:15:16;7.10;99.90
3660;DHT22;1846;51.482;7.224;2023-04-25T21:17:50;7.00;99.90
3660;DHT22;1846;51.482;7.224;2023-04-25T21:20:20;7.00;99.90
3660;DHT22;1846;51.482;7.224;2023-04-25T21:22:50;7.00;99.90
3660;DHT22;1846;51.482;7.224;2023-04-25T21:25:23;7.10;99.90
3660;DHT22;1846;51.482;7.224;2023-04-25T21:27:56;7.10;99.90
3660;DHT22;1846;51.482;7.224;2023-04-25T21:30:29;7.00;99.90
3660;DHT22;1846;51.482;7.224;2023-04-25T21:33:12;6.90;99.90